XCM weather

Chatham Kent Airport
Chatham-Kent, Ontario, Canada

Public forecast

Using degrees Celsius for public forecast. Weather courtesy of forecast.io.

Current aviation weather report (METAR) for Chatham Kent Airport

Retrieved 2020/07/14 00:00 UTC (21 minutes ago):

CYCK 140000Z AUTO 04006KT 9SM CLR 23/13 A2998 RMK SLP151 DENSITY ALT 1600FT

Closest aviation forecast (TAF) to Chatham Kent Airport

Forecast is more than 6 hours old.

Closest forecast is Selfridge Air National Guard Base Airport, 38.2 nm (70.7 km) WNW. Retrieved 2020/07/13 17:12 UTC (7 hours ago):

TAF KMTC 131700Z 1317/1423 VRB06KT 9999 BKN030 QNH2994INS TX25/1417Z TN16/1409Z